Startpagina
METAR-TAF:

METAR-TAF

Vliegvelden :

Wiener Neustadt, Oostenrijk

breedte: 47-50-36N, lengte: 016-15-29E, hoogte: 272 m

Actueel weer

Dit bericht is 23 minuten geleden gemaakt, om 14:00 UTC
Wind 6 kt uit het oostzuidoosten
Temperatuur
Druk

METAR: LOAN 181400Z 12006KT 45KM FEW060CU

Tijdstip: 16:23 (14:23 UTC)

Verwachting

Dit bericht is 2 uur en het 58 minuten geleden gemaakt, om 11:25 UTC
Verwachting geldig van 18 om 12 UTC tot 18 om 21 UTC
Wind 7 kt uit het oosten
Zicht 10 km of meer
Weinig wolken op 5000 ft

TAF: LOAN 181125Z 1812/1821 10007KT 9999 FEW050

Waarnemingen en weersverwachtingen van meer dan 4000 vliegvelden (METAR en TAF).

De beschikbare stations zijn de gele en rode punten op de kaart.

Ga met uw muis naar het station om de naam te zien.

Klik dan om waarnemingen en weersverwachtingen te zien.

kaart wijzigen: klik op de groene knoppen met een zwart kruis om in te zoomen, op de groene knop met een streepje om uit te zoomen of op de groene pijlen voor aangrenzende kaarten.


METAR-TAF: